Time;durP1;ratioP1;P1;durP2;ratioP2;P2;SDS_P1;SDS_P2;PMS_P1;PMS_P2;Temp;Humidity;BMP_temperature;BMP_pressure;BME280_temperature;BME280_humidity;BME280_pressure;Samples;Min_cycle;Max_cycle;Signal;HPM_P1;HPM_P2
2022/10/08 00:00:11;;;;;;;;;;;13.10;99.90;;;;;;5007136;28;19921;-67
2022/10/08 00:02:36;;;;;;;;;;;13.00;99.90;;;;;;5013291;28;19925;-67
2022/10/08 00:05:02;;;;;;;;;;;13.00;99.90;;;;;;5032516;28;20465;-67
2022/10/08 00:07:27;;;;;;;;;;;13.00;99.90;;;;;;5017633;28;19925;-67
2022/10/08 00:09:53;;;;;;;;;;;13.00;99.90;;;;;;5011771;28;20429;-67
2022/10/08 00:12:18;;;;;;;;;;;13.00;99.90;;;;;;5007980;28;19921;-67
2022/10/08 00:14:44;;;;;;;;;;;13.00;99.90;;;;;;5028630;28;19925;-67
2022/10/08 00:17:09;;;;;;;;;;;12.90;99.90;;;;;;4996574;28;19921;-67
2022/10/08 00:19:35;;;;;;;;;;;12.90;99.90;;;;;;5011579;28;19928;-67
2022/10/08 00:22:00;;;;;;;;;;;12.90;99.90;;;;;;5012600;28;19928;-67
2022/10/08 00:24:26;;;;;;;;;;;12.90;99.90;;;;;;5004030;28;19936;-67
2022/10/08 00:26:52;;;;;;;;;;;12.80;99.90;;;;;;5010556;28;19940;-67
2022/10/08 00:29:19;;;;;;;;;;;12.80;99.90;;;;;;5011959;28;19947;-67
2022/10/08 00:31:46;;;;;;;;;;;12.80;99.90;;;;;;5011767;28;19925;-67
2022/10/08 00:34:13;;;;;;;;;;;12.80;99.90;;;;;;5009029;28;19936;-67
2022/10/08 00:36:40;;;;;;;;;;;12.80;99.90;;;;;;5028346;28;20375;-67
2022/10/08 00:39:07;;;;;;;;;;;12.80;99.90;;;;;;5009964;28;19967;-67
2022/10/08 00:41:35;;;;;;;;;;;12.80;99.90;;;;;;5009148;28;19929;-67
2022/10/08 00:44:03;;;;;;;;;;;12.80;99.90;;;;;;5010470;28;19925;-67
2022/10/08 00:46:34;;;;;;;;;;;12.80;99.90;;;;;;5013651;28;19925;-67
2022/10/08 00:49:12;;;;;;;;;;;12.80;99.90;;;;;;5011818;28;19947;-67
2022/10/08 00:51:48;;;;;;;;;;;12.80;99.90;;;;;;5015973;28;20279;-67
2022/10/08 00:54:14;;;;;;;;;;;12.80;99.90;;;;;;5015630;28;19931;-67
2022/10/08 00:56:40;;;;;;;;;;;12.80;99.90;;;;;;4991187;28;19925;-67
2022/10/08 00:59:07;;;;;;;;;;;12.80;99.90;;;;;;5012781;28;19921;-67
2022/10/08 01:01:32;;;;;;;;;;;12.80;99.90;;;;;;5016117;28;19932;-67
2022/10/08 01:04:01;;;;;;;;;;;12.80;99.90;;;;;;5020415;28;19925;-67
2022/10/08 01:06:28;;;;;;;;;;;12.80;99.90;;;;;;5017097;28;19931;-67
2022/10/08 01:09:23;;;;;;;;;;;12.70;99.90;;;;;;5016079;28;19959;-67
2022/10/08 01:11:54;;;;;;;;;;;12.70;99.90;;;;;;5002878;28;19921;-67
2022/10/08 01:14:40;;;;;;;;;;;12.60;99.90;;;;;;5015326;28;20048;-67
2022/10/08 01:17:24;;;;;;;;;;;12.60;99.90;;;;;;5029685;28;20012;-66
2022/10/08 01:20:05;;;;;;;;;;;12.60;99.90;;;;;;5011812;28;19952;-67
2022/10/08 01:22:49;;;;;;;;;;;12.50;99.90;;;;;;5015762;28;19932;-67
2022/10/08 01:25:31;;;;;;;;;;;12.50;99.90;;;;;;5013265;28;19933;-67
2022/10/08 01:28:06;;;;;;;;;;;12.50;99.90;;;;;;5015411;28;19983;-67
2022/10/08 01:30:34;;;;;;;;;;;12.50;99.90;;;;;;5020893;28;19970;-67
2022/10/08 01:33:01;;;;;;;;;;;12.40;99.90;;;;;;5017921;28;19963;-67
2022/10/08 01:35:28;;;;;;;;;;;12.40;99.90;;;;;;5009088;28;19927;-66
2022/10/08 01:37:55;;;;;;;;;;;12.40;99.90;;;;;;5032066;28;19928;-67
2022/10/08 01:40:23;;;;;;;;;;;12.30;99.90;;;;;;5014558;28;19925;-67
2022/10/08 01:42:50;;;;;;;;;;;12.30;99.90;;;;;;5015631;28;19978;-67
2022/10/08 01:45:19;;;;;;;;;;;12.20;99.90;;;;;;5016184;28;19962;-67
2022/10/08 01:47:46;;;;;;;;;;;12.20;99.90;;;;;;5010487;28;20298;-67
2022/10/08 01:50:27;;;;;;;;;;;12.20;99.90;;;;;;5006082;28;19925;-67
2022/10/08 01:52:57;;;;;;;;;;;12.10;99.90;;;;;;5012550;28;19922;-67
2022/10/08 01:55:26;;;;;;;;;;;12.10;99.90;;;;;;5022192;28;19929;-67
2022/10/08 01:57:53;;;;;;;;;;;12.10;99.90;;;;;;5008845;28;19928;-67
2022/10/08 02:00:19;;;;;;;;;;;12.10;99.90;;;;;;5012875;28;20306;-67
2022/10/08 02:02:45;;;;;;;;;;;12.00;99.90;;;;;;5015233;28;19925;-66
2022/10/08 02:05:10;;;;;;;;;;;12.00;99.90;;;;;;5011941;28;19925;-66
2022/10/08 02:07:37;;;;;;;;;;;12.00;99.90;;;;;;5005137;28;20358;-67
2022/10/08 02:10:06;;;;;;;;;;;11.90;99.90;;;;;;5006428;28;20012;-66
2022/10/08 02:12:32;;;;;;;;;;;11.90;99.90;;;;;;5017058;28;19929;-66
2022/10/08 02:14:58;;;;;;;;;;;11.80;99.90;;;;;;5011769;28;20007;-66
2022/10/08 02:17:28;;;;;;;;;;;11.80;99.90;;;;;;5027780;28;20012;-67
2022/10/08 02:20:06;;;;;;;;;;;11.70;99.90;;;;;;4998275;28;20389;-66
2022/10/08 02:22:35;;;;;;;;;;;11.60;99.90;;;;;;5001382;28;19932;-66
2022/10/08 02:25:20;;;;;;;;;;;11.60;99.90;;;;;;5007833;28;19933;-66
2022/10/08 02:27:56;;;;;;;;;;;11.50;99.90;;;;;;5011619;28;19921;-66
2022/10/08 02:30:22;;;;;;;;;;;11.40;99.90;;;;;;5023543;28;19920;-66
2022/10/08 02:33:00;;;;;;;;;;;11.40;99.90;;;;;;5013705;28;19921;-66
2022/10/08 02:35:30;;;;;;;;;;;11.30;99.90;;;;;;4998863;28;20310;-66
2022/10/08 02:38:04;;;;;;;;;;;11.30;99.90;;;;;;5012421;28;19921;-66
2022/10/08 02:40:30;;;;;;;;;;;11.20;99.90;;;;;;5010729;28;19932;-66
2022/10/08 02:43:02;;;;;;;;;;;11.20;99.90;;;;;;5013684;28;19960;-66
2022/10/08 02:45:34;;;;;;;;;;;11.10;99.90;;;;;;5012501;28;19921;-66
2022/10/08 02:48:03;;;;;;;;;;;11.10;99.90;;;;;;5005756;28;19929;-66
2022/10/08 02:50:29;;;;;;;;;;;11.00;99.90;;;;;;5003489;28;19978;-66
2022/10/08 02:52:55;;;;;;;;;;;11.00;99.90;;;;;;5023896;28;19928;-66
2022/10/08 02:55:25;;;;;;;;;;;11.00;99.90;;;;;;5007520;28;19952;-66
2022/10/08 02:57:57;;;;;;;;;;;10.90;99.90;;;;;;5011388;28;20272;-66
2022/10/08 03:00:23;;;;;;;;;;;10.90;99.90;;;;;;5009780;28;20374;-66
2022/10/08 03:02:55;;;;;;;;;;;10.90;99.90;;;;;;5018485;28;19935;-66
2022/10/08 03:05:20;;;;;;;;;;;10.90;99.90;;;;;;5025429;28;20271;-66
2022/10/08 03:07:49;;;;;;;;;;;10.80;99.90;;;;;;5012972;28;19928;-66
2022/10/08 03:10:15;;;;;;;;;;;10.80;99.90;;;;;;5011953;28;20294;-66
2022/10/08 03:12:40;;;;;;;;;;;10.70;99.90;;;;;;5010422;28;19928;-66
2022/10/08 03:15:07;;;;;;;;;;;10.70;99.90;;;;;;4990948;28;20385;-66
2022/10/08 03:17:38;;;;;;;;;;;10.70;99.90;;;;;;5009971;28;19933;-66
2022/10/08 03:20:05;;;;;;;;;;;10.70;99.90;;;;;;5011132;28;19980;-66
2022/10/08 03:22:30;;;;;;;;;;;10.70;99.90;;;;;;5007472;28;19932;-66
2022/10/08 03:24:56;;;;;;;;;;;10.60;99.90;;;;;;5013517;28;19929;-66
2022/10/08 03:27:21;;;;;;;;;;;10.60;99.90;;;;;;5012372;28;20028;-66
2022/10/08 03:29:47;;;;;;;;;;;10.60;99.90;;;;;;5008911;28;19921;-66
2022/10/08 03:32:12;;;;;;;;;;;10.60;99.90;;;;;;5027906;28;19940;-66
2022/10/08 03:34:38;;;;;;;;;;;10.60;99.90;;;;;;5013423;28;20326;-66
2022/10/08 03:37:03;;;;;;;;;;;10.50;99.90;;;;;;5011747;28;19931;-66
2022/10/08 03:39:29;;;;;;;;;;;10.50;99.90;;;;;;5013987;28;19944;-66
2022/10/08 03:41:54;;;;;;;;;;;10.50;99.90;;;;;;5031452;28;19933;-66
2022/10/08 03:44:19;;;;;;;;;;;10.50;99.90;;;;;;5029392;28;19968;-67
2022/10/08 03:46:45;;;;;;;;;;;10.50;99.90;;;;;;5006295;28;20278;-66
2022/10/08 03:49:10;;;;;;;;;;;10.50;99.90;;;;;;5013573;28;19925;-66
2022/10/08 03:51:36;;;;;;;;;;;10.50;99.90;;;;;;5029948;28;20278;-66
2022/10/08 03:54:01;;;;;;;;;;;10.50;99.90;;;;;;5012552;28;19928;-66
2022/10/08 03:56:27;;;;;;;;;;;10.50;99.90;;;;;;5013152;28;19928;-67
2022/10/08 03:58:54;;;;;;;;;;;10.60;99.90;;;;;;4990893;28;19928;-67
2022/10/08 04:01:19;;;;;;;;;;;10.60;99.90;;;;;;5011478;28;20442;-67
2022/10/08 04:03:44;;;;;;;;;;;10.60;99.90;;;;;;5011114;28;19929;-67
2022/10/08 04:06:11;;;;;;;;;;;10.60;99.90;;;;;;5013208;28;19921;-67
2022/10/08 04:08:37;;;;;;;;;;;10.50;99.90;;;;;;5010490;28;19929;-67
2022/10/08 04:11:03;;;;;;;;;;;10.50;99.90;;;;;;5013799;28;19944;-66
2022/10/08 04:13:28;;;;;;;;;;;10.50;99.90;;;;;;5016572;28;19952;-66
2022/10/08 04:15:58;;;;;;;;;;;10.40;99.90;;;;;;5031774;28;19920;-66
2022/10/08 04:18:23;;;;;;;;;;;10.40;99.90;;;;;;5012713;28;19929;-66
2022/10/08 04:20:49;;;;;;;;;;;10.40;99.90;;;;;;5030127;28;19984;-66
2022/10/08 04:23:14;;;;;;;;;;;10.40;99.90;;;;;;5011554;28;19936;-66
2022/10/08 04:25:47;;;;;;;;;;;10.30;99.90;;;;;;5017185;28;19933;-66
2022/10/08 04:28:13;;;;;;;;;;;10.30;99.90;;;;;;5017265;28;20047;-66
2022/10/08 04:30:39;;;;;;;;;;;10.30;99.90;;;;;;5015422;28;19972;-66
2022/10/08 04:33:04;;;;;;;;;;;10.20;99.90;;;;;;5015030;28;19948;-66
2022/10/08 04:35:30;;;;;;;;;;;10.20;99.90;;;;;;5010044;28;19921;-66
2022/10/08 04:37:55;;;;;;;;;;;10.20;99.90;;;;;;5016652;28;20393;-66
2022/10/08 04:40:21;;;;;;;;;;;10.10;99.90;;;;;;5062682;23;19924;-66
2022/10/08 04:42:50;;;;;;;;;;;10.10;99.90;;;;;;5075959;28;19925;-67
2022/10/08 04:45:16;;;;;;;;;;;10.10;99.90;;;;;;5062127;28;19928;-67
2022/10/08 04:47:42;;;;;;;;;;;10.00;99.90;;;;;;5071476;28;19921;-67
2022/10/08 04:50:07;;;;;;;;;;;10.00;99.90;;;;;;5073635;28;19920;-67
2022/10/08 04:52:33;;;;;;;;;;;9.90;99.90;;;;;;5075426;28;19936;-67
2022/10/08 04:54:58;;;;;;;;;;;10.00;99.90;;;;;;5071377;28;20334;-67
2022/10/08 04:57:24;;;;;;;;;;;10.00;99.90;;;;;;5069781;28;19924;-67
2022/10/08 04:59:49;;;;;;;;;;;9.90;99.90;;;;;;5066638;28;19928;-67
2022/10/08 05:02:15;;;;;;;;;;;9.90;99.90;;;;;;5072352;28;19947;-67
2022/10/08 05:04:40;;;;;;;;;;;9.90;99.90;;;;;;5075130;28;19981;-67
2022/10/08 05:07:05;;;;;;;;;;;9.90;99.90;;;;;;5067939;28;19920;-67
2022/10/08 05:09:31;;;;;;;;;;;9.90;99.90;;;;;;5068502;28;20003;-67
2022/10/08 05:11:56;;;;;;;;;;;9.90;99.90;;;;;;5071292;28;19921;-67
2022/10/08 05:14:22;;;;;;;;;;;9.90;99.90;;;;;;5063150;28;19921;-67
2022/10/08 05:16:47;;;;;;;;;;;9.90;99.90;;;;;;5055919;28;19928;-67
2022/10/08 05:19:13;;;;;;;;;;;9.90;99.90;;;;;;5070246;28;19927;-67
2022/10/08 05:21:38;;;;;;;;;;;9.80;99.90;;;;;;5073110;28;19921;-67
2022/10/08 05:24:05;;;;;;;;;;;9.80;99.90;;;;;;5063465;28;20254;-67
2022/10/08 05:26:35;;;;;;;;;;;9.80;99.90;;;;;;5074232;28;19920;-67
2022/10/08 05:29:01;;;;;;;;;;;9.70;99.90;;;;;;5059534;28;19920;-67
2022/10/08 05:31:27;;;;;;;;;;;9.70;99.90;;;;;;5066995;28;20024;-67
2022/10/08 05:33:53;;;;;;;;;;;9.70;99.90;;;;;;5064244;28;19970;-67
2022/10/08 05:36:29;;;;;;;;;;;9.70;99.90;;;;;;5067350;28;19920;-67
2022/10/08 05:38:55;;;;;;;;;;;9.70;99.90;;;;;;5072857;28;20293;-67
2022/10/08 05:41:22;;;;;;;;;;;9.70;99.90;;;;;;5069815;28;19920;-67
2022/10/08 05:43:48;;;;;;;;;;;9.70;99.90;;;;;;5061667;28;20027;-67
2022/10/08 05:46:14;;;;;;;;;;;9.70;99.90;;;;;;5068752;28;19925;-67
2022/10/08 05:48:40;;;;;;;;;;;9.70;99.90;;;;;;5071157;28;19927;-67
2022/10/08 05:51:07;;;;;;;;;;;9.70;99.90;;;;;;5064285;28;19929;-67
2022/10/08 05:53:33;;;;;;;;;;;9.70;99.90;;;;;;5046829;28;19928;-67
2022/10/08 05:55:59;;;;;;;;;;;9.70;99.90;;;;;;5059996;28;20015;-67
2022/10/08 05:58:25;;;;;;;;;;;9.70;99.90;;;;;;5071816;28;19924;-67
2022/10/08 06:00:58;;;;;;;;;;;9.60;99.90;;;;;;5070245;28;20422;-67
2022/10/08 06:03:23;;;;;;;;;;;9.60;99.90;;;;;;5063560;28;20791;-67
2022/10/08 06:05:49;;;;;;;;;;;9.60;99.90;;;;;;5063954;28;19924;-67
2022/10/08 06:08:14;;;;;;;;;;;9.70;99.90;;;;;;5070336;28;19924;-67
2022/10/08 06:10:47;;;;;;;;;;;9.70;99.90;;;;;;5069767;28;20007;-67
2022/10/08 06:13:13;;;;;;;;;;;9.70;99.90;;;;;;5070683;28;19928;-67
2022/10/08 06:15:38;;;;;;;;;;;9.70;99.90;;;;;;5062541;28;20011;-67
2022/10/08 06:18:04;;;;;;;;;;;9.70;99.90;;;;;;5071583;28;20007;-67
2022/10/08 06:20:29;;;;;;;;;;;9.70;99.90;;;;;;5061685;28;20310;-67
2022/10/08 06:22:55;;;;;;;;;;;9.80;99.90;;;;;;5068059;28;19924;-67
2022/10/08 06:25:20;;;;;;;;;;;9.80;99.90;;;;;;5069541;28;19920;-67
2022/10/08 06:27:46;;;;;;;;;;;9.90;99.90;;;;;;5072145;28;19925;-67
2022/10/08 06:30:11;;;;;;;;;;;10.00;99.90;;;;;;5074081;28;19921;-67
2022/10/08 06:32:37;;;;;;;;;;;10.10;99.90;;;;;;5064485;28;19924;-67
2022/10/08 06:35:03;;;;;;;;;;;10.20;99.90;;;;;;5070149;28;20320;-67
2022/10/08 06:37:28;;;;;;;;;;;10.30;99.90;;;;;;5071876;28;20016;-67
2022/10/08 06:39:54;;;;;;;;;;;10.50;99.90;;;;;;5072630;28;20019;-67
2022/10/08 06:42:19;;;;;;;;;;;10.60;99.90;;;;;;5061426;28;19978;-67
2022/10/08 06:44:45;;;;;;;;;;;10.70;99.90;;;;;;5074033;28;20116;-67
2022/10/08 06:47:10;;;;;;;;;;;10.80;99.90;;;;;;5063823;28;20015;-67
2022/10/08 06:49:36;;;;;;;;;;;10.90;99.90;;;;;;5071769;28;20679;-67
2022/10/08 06:52:01;;;;;;;;;;;11.60;99.90;;;;;;5067046;28;20007;-67
2022/10/08 06:54:27;;;;;;;;;;;12.50;99.90;;;;;;5071068;28;19927;-67
2022/10/08 06:56:52;;;;;;;;;;;13.30;99.90;;;;;;5072802;28;20419;-67
2022/10/08 06:59:18;;;;;;;;;;;13.50;99.90;;;;;;5067426;28;19921;-67
2022/10/08 07:01:44;;;;;;;;;;;13.40;99.90;;;;;;5067095;28;19999;-67
2022/10/08 07:04:09;;;;;;;;;;;13.00;99.90;;;;;;5070805;28;19921;-67
2022/10/08 07:06:35;;;;;;;;;;;12.90;99.90;;;;;;5069904;28;19931;-67
2022/10/08 07:09:01;;;;;;;;;;;12.70;99.90;;;;;;5070468;28;19928;-67
2022/10/08 07:11:27;;;;;;;;;;;12.60;99.90;;;;;;5075814;28;19924;-67
2022/10/08 07:13:53;;;;;;;;;;;12.70;99.90;;;;;;5067039;28;19921;-67
2022/10/08 07:16:20;;;;;;;;;;;12.70;99.90;;;;;;5066028;28;19921;-67
2022/10/08 07:18:46;;;;;;;;;;;12.70;99.90;;;;;;5068119;28;19928;-67
2022/10/08 07:21:13;;;;;;;;;;;12.40;99.90;;;;;;5070724;28;20053;-67
2022/10/08 07:23:38;;;;;;;;;;;12.30;99.90;;;;;;5066516;28;20452;-67
2022/10/08 07:26:05;;;;;;;;;;;12.20;99.90;;;;;;5063796;28;19999;-67
2022/10/08 07:28:33;;;;;;;;;;;12.00;99.90;;;;;;5065160;28;19955;-67
2022/10/08 07:31:06;;;;;;;;;;;11.90;99.90;;;;;;5066175;28;19963;-67
2022/10/08 07:33:32;;;;;;;;;;;12.10;99.90;;;;;;5071578;28;19997;-67
2022/10/08 07:36:14;;;;;;;;;;;12.30;99.90;;;;;;5067497;28;19971;-65
2022/10/08 07:38:39;;;;;;;;;;;12.30;99.90;;;;;;5066466;28;19921;-65
2022/10/08 07:41:05;;;;;;;;;;;12.40;99.90;;;;;;5062549;28;19957;-65
2022/10/08 07:43:31;;;;;;;;;;;12.50;99.90;;;;;;5069177;28;20293;-65
2022/10/08 07:45:57;;;;;;;;;;;12.70;99.90;;;;;;5071877;28;19924;-65
2022/10/08 07:48:22;;;;;;;;;;;12.70;99.90;;;;;;5070323;28;19926;-66
2022/10/08 07:50:48;;;;;;;;;;;12.70;99.90;;;;;;5064681;28;19921;-66
2022/10/08 07:53:13;;;;;;;;;;;12.60;99.90;;;;;;5065621;28;20041;-66
2022/10/08 07:55:39;;;;;;;;;;;12.60;99.90;;;;;;5070314;28;19920;-66
2022/10/08 07:58:05;;;;;;;;;;;12.70;99.90;;;;;;5068081;28;19939;-66
2022/10/08 08:00:31;;;;;;;;;;;12.70;99.90;;;;;;5069813;28;19921;-66
2022/10/08 08:02:56;;;;;;;;;;;12.70;99.90;;;;;;5070280;28;19924;-66
2022/10/08 08:05:21;;;;;;;;;;;12.70;99.90;;;;;;5069135;28;19935;-66
2022/10/08 08:07:47;;;;;;;;;;;12.80;99.90;;;;;;5063472;28;20380;-66
2022/10/08 08:10:13;;;;;;;;;;;12.80;99.90;;;;;;5064180;28;19920;-65
2022/10/08 08:12:38;;;;;;;;;;;12.90;99.90;;;;;;5066327;28;20294;-66
2022/10/08 08:15:04;;;;;;;;;;;12.90;99.90;;;;;;5062379;28;20374;-66
2022/10/08 08:17:29;;;;;;;;;;;13.00;99.90;;;;;;5068490;28;19921;-66
2022/10/08 08:19:55;;;;;;;;;;;13.00;99.90;;;;;;5072264;28;19928;-66
2022/10/08 08:22:20;;;;;;;;;;;13.10;99.90;;;;;;5059595;28;19931;-65
2022/10/08 08:24:45;;;;;;;;;;;13.10;99.90;;;;;;5066258;28;20372;-66
2022/10/08 08:27:11;;;;;;;;;;;13.20;99.90;;;;;;5064868;28;19924;-65
2022/10/08 08:29:36;;;;;;;;;;;13.30;99.90;;;;;;5070176;28;19924;-65
2022/10/08 08:32:02;;;;;;;;;;;13.40;99.90;;;;;;5071239;28;19942;-65
2022/10/08 08:34:29;;;;;;;;;;;13.50;99.90;;;;;;5071164;28;19921;-65
2022/10/08 08:36:54;;;;;;;;;;;13.50;99.90;;;;;;5072929;28;19931;-65
2022/10/08 08:39:20;;;;;;;;;;;13.60;99.90;;;;;;5069169;28;19932;-66
2022/10/08 08:42:04;;;;;;;;;;;13.60;99.90;;;;;;5058508;28;19921;-66
2022/10/08 08:44:32;;;;;;;;;;;13.60;99.90;;;;;;5062088;28;20403;-66
2022/10/08 08:47:04;;;;;;;;;;;13.70;99.90;;;;;;5066567;28;20385;-66
2022/10/08 08:49:37;;;;;;;;;;;13.80;99.90;;;;;;5057802;28;19927;-66
2022/10/08 08:52:03;;;;;;;;;;;13.80;99.90;;;;;;5071395;28;20433;-66
2022/10/08 08:54:29;;;;;;;;;;;13.80;99.90;;;;;;5056987;28;19963;-66
2022/10/08 08:56:55;;;;;;;;;;;13.80;99.90;;;;;;5056456;28;20301;-66
2022/10/08 08:59:36;;;;;;;;;;;13.90;99.90;;;;;;5066523;28;19974;-66
2022/10/08 09:02:04;;;;;;;;;;;13.90;99.90;;;;;;5065830;28;19986;-66
2022/10/08 09:05:05;;;;;;;;;;;14.00;99.90;;;;;;5068303;28;19927;-66
2022/10/08 09:07:48;;;;;;;;;;;14.10;99.90;;;;;;5046805;28;20418;-66
2022/10/08 09:10:17;;;;;;;;;;;14.10;99.90;;;;;;5060438;28;20643;-66
2022/10/08 09:12:42;;;;;;;;;;;14.10;99.90;;;;;;5071421;28;19948;-66
2022/10/08 09:15:14;;;;;;;;;;;14.10;99.90;;;;;;5068887;28;19952;-66
2022/10/08 09:17:40;;;;;;;;;;;14.10;99.90;;;;;;5068011;28;19944;-66
2022/10/08 09:20:06;;;;;;;;;;;14.10;99.90;;;;;;5071598;28;20373;-66
2022/10/08 09:22:36;;;;;;;;;;;14.10;99.90;;;;;;5070998;28;19935;-66
2022/10/08 09:25:04;;;;;;;;;;;14.20;99.90;;;;;;5070226;28;19952;-66
2022/10/08 09:27:49;;;;;;;;;;;14.30;99.90;;;;;;5064584;28;19927;-66
2022/10/08 09:30:35;;;;;;;;;;;14.50;99.90;;;;;;5071729;28;20007;-66
2022/10/08 09:33:03;;;;;;;;;;;14.50;99.90;;;;;;5064561;28;19927;-66
2022/10/08 09:35:31;;;;;;;;;;;14.50;99.90;;;;;;5067344;28;20600;-66
2022/10/08 09:37:56;;;;;;;;;;;14.40;99.90;;;;;;5056202;28;19988;-66
2022/10/08 09:40:23;;;;;;;;;;;14.50;99.90;;;;;;5069109;28;19966;-66
2022/10/08 09:43:07;;;;;;;;;;;14.50;99.90;;;;;;5062016;28;19932;-66
2022/10/08 09:45:37;;;;;;;;;;;14.60;99.90;;;;;;5057689;28;19974;-66
2022/10/08 09:48:23;;;;;;;;;;;14.60;99.90;;;;;;5047147;28;19931;-66
2022/10/08 09:51:03;;;;;;;;;;;14.50;99.90;;;;;;5068887;28;20289;-66
2022/10/08 09:53:39;;;;;;;;;;;14.50;99.90;;;;;;5065806;28;19928;-66
2022/10/08 09:56:06;;;;;;;;;;;14.50;99.90;;;;;;5071893;28;19929;-66
2022/10/08 09:58:32;;;;;;;;;;;14.70;99.90;;;;;;5067057;28;19920;-66
2022/10/08 10:01:11;;;;;;;;;;;14.90;99.90;;;;;;5073442;28;20400;-66
2022/10/08 10:03:36;;;;;;;;;;;15.00;99.90;;;;;;5070857;28;19963;-66
2022/10/08 10:06:02;;;;;;;;;;;15.30;99.90;;;;;;5067336;28;19964;-66
2022/10/08 10:08:47;;;;;;;;;;;15.40;99.90;;;;;;5054935;28;20366;-66
2022/10/08 10:11:40;;;;;;;;;;;15.60;99.90;;;;;;5068836;28;19928;-66
2022/10/08 10:14:11;;;;;;;;;;;15.60;99.90;;;;;;5062347;28;19920;-66
2022/10/08 10:16:41;;;;;;;;;;;15.40;99.90;;;;;;5057065;28;19924;-66
2022/10/08 10:19:14;;;;;;;;;;;15.60;99.90;;;;;;5063403;28;19920;-66
2022/10/08 10:21:48;;;;;;;;;;;15.60;99.90;;;;;;5068705;28;19921;-66
2022/10/08 10:24:23;;;;;;;;;;;15.80;99.90;;;;;;5060442;28;20007;-66
2022/10/08 10:26:51;;;;;;;;;;;15.80;99.90;;;;;;5067926;28;19920;-66
2022/10/08 10:29:21;;;;;;;;;;;15.90;99.90;;;;;;5060113;28;19921;-66
2022/10/08 10:31:49;;;;;;;;;;;16.00;99.90;;;;;;5057709;28;19920;-66
2022/10/08 10:34:20;;;;;;;;;;;16.00;99.90;;;;;;5068012;28;19971;-66
2022/10/08 10:36:56;;;;;;;;;;;15.70;99.90;;;;;;5070015;28;19927;-66
2022/10/08 10:39:28;;;;;;;;;;;15.40;99.90;;;;;;5063861;28;20306;-66
2022/10/08 10:42:11;;;;;;;;;;;15.20;99.90;;;;;;5068984;28;20396;-66
2022/10/08 10:44:53;;;;;;;;;;;15.00;99.90;;;;;;5067619;28;19932;-66
2022/10/08 10:47:22;;;;;;;;;;;14.60;99.90;;;;;;5068265;28;19963;-66
2022/10/08 10:49:49;;;;;;;;;;;14.50;99.90;;;;;;5066815;28;19924;-66
2022/10/08 10:52:15;;;;;;;;;;;14.60;99.90;;;;;;5070649;28;19928;-66
2022/10/08 10:54:54;;;;;;;;;;;14.80;99.90;;;;;;5067467;28;19928;-66
2022/10/08 10:57:19;;;;;;;;;;;15.10;99.90;;;;;;5066284;28;19920;-66
2022/10/08 10:59:47;;;;;;;;;;;15.40;99.90;;;;;;5066482;28;19932;-66
2022/10/08 11:02:38;;;;;;;;;;;15.50;99.90;;;;;;5069313;28;19924;-66
2022/10/08 11:05:21;;;;;;;;;;;15.40;99.90;;;;;;5052891;28;20377;-66
2022/10/08 11:08:05;;;;;;;;;;;15.20;99.90;;;;;;5068640;28;19943;-66
2022/10/08 11:10:50;;;;;;;;;;;15.20;99.90;;;;;;5058564;28;19942;-66
2022/10/08 11:13:22;;;;;;;;;;;15.40;99.90;;;;;;5078239;28;19933;-66
2022/10/08 11:15:50;;;;;;;;;;;15.50;99.90;;;;;;5061158;28;20373;-66
2022/10/08 11:18:36;;;;;;;;;;;15.60;99.90;;;;;;5068284;28;19928;-66
2022/10/08 11:21:01;;;;;;;;;;;15.70;99.90;;;;;;5064519;28;20332;-66
2022/10/08 11:23:48;;;;;;;;;;;15.90;99.90;;;;;;5057132;28;20016;-66
2022/10/08 11:26:19;;;;;;;;;;;16.00;99.90;;;;;;5061762;28;19921;-66
2022/10/08 11:28:49;;;;;;;;;;;16.10;99.90;;;;;;5065408;28;20018;-66
2022/10/08 11:31:22;;;;;;;;;;;16.20;99.90;;;;;;5069062;28;19933;-66
2022/10/08 11:33:48;;;;;;;;;;;16.40;99.90;;;;;;5067380;28;20061;-66
2022/10/08 11:36:27;;;;;;;;;;;16.40;99.10;;;;;;5063117;28;20007;-66
2022/10/08 11:39:00;;;;;;;;;;;16.30;99.90;;;;;;5071821;28;19920;-66
2022/10/08 11:41:37;;;;;;;;;;;16.20;99.90;;;;;;5062327;28;19920;-66
2022/10/08 11:44:05;;;;;;;;;;;16.20;99.60;;;;;;5060728;28;20293;-66
2022/10/08 11:46:32;;;;;;;;;;;16.10;99.50;;;;;;5062207;28;20358;-66
2022/10/08 11:49:01;;;;;;;;;;;16.20;99.90;;;;;;5081687;28;19936;-66
2022/10/08 11:51:27;;;;;;;;;;;16.30;99.90;;;;;;5066247;28;19925;-66
2022/10/08 11:53:56;;;;;;;;;;;16.40;99.90;;;;;;5064628;28;20384;-66
2022/10/08 11:56:21;;;;;;;;;;;16.50;99.90;;;;;;5065373;28;19960;-66
2022/10/08 11:58:51;;;;;;;;;;;16.70;99.90;;;;;;5063507;28;19956;-66
2022/10/08 12:01:17;;;;;;;;;;;16.70;99.50;;;;;;5067638;28;19926;-66
2022/10/08 12:03:44;;;;;;;;;;;16.80;99.00;;;;;;5070965;28;20469;-66
2022/10/08 12:06:15;;;;;;;;;;;16.90;99.90;;;;;;5065069;28;20246;-66
2022/10/08 12:08:53;;;;;;;;;;;16.70;98.30;;;;;;5070861;28;20277;-66
2022/10/08 12:11:30;;;;;;;;;;;16.70;99.30;;;;;;5069944;28;19920;-66
2022/10/08 12:14:11;;;;;;;;;;;16.70;99.90;;;;;;5061437;28;20377;-66
2022/10/08 12:16:45;;;;;;;;;;;16.60;98.70;;;;;;5064349;28;19920;-66
2022/10/08 12:19:34;;;;;;;;;;;16.60;99.40;;;;;;5066440;28;20051;-65
2022/10/08 12:22:01;;;;;;;;;;;16.80;99.60;;;;;;5055354;28;19929;-66
2022/10/08 12:24:35;;;;;;;;;;;16.90;98.80;;;;;;5059511;28;19921;-66
2022/10/08 12:27:16;;;;;;;;;;;17.00;99.00;;;;;;5065396;28;19927;-66
2022/10/08 12:30:02;;;;;;;;;;;17.20;97.60;;;;;;5070719;28;19928;-66
2022/10/08 12:32:29;;;;;;;;;;;17.50;99.10;;;;;;5070313;28;19924;-66
2022/10/08 12:34:54;;;;;;;;;;;17.80;99.10;;;;;;5063791;28;19929;-66
2022/10/08 12:37:43;;;;;;;;;;;17.90;98.50;;;;;;5067305;28;19929;-66
2022/10/08 12:40:18;;;;;;;;;;;18.00;96.40;;;;;;5067244;28;19931;-66
2022/10/08 12:42:44;;;;;;;;;;;18.20;98.50;;;;;;5064358;28;19924;-66
2022/10/08 12:45:18;;;;;;;;;;;18.20;97.40;;;;;;5067493;28;19920;-65
2022/10/08 12:47:43;;;;;;;;;;;18.00;95.20;;;;;;5072958;28;19963;-66
2022/10/08 12:50:31;;;;;;;;;;;18.00;98.10;;;;;;5073104;28;19970;-66
2022/10/08 12:53:01;;;;;;;;;;;17.90;96.20;;;;;;5068397;28;19943;-66
2022/10/08 12:55:28;;;;;;;;;;;18.00;97.60;;;;;;5065834;28;19920;-66
2022/10/08 12:57:53;;;;;;;;;;;18.10;97.70;;;;;;5067580;28;19920;-66
2022/10/08 13:00:23;;;;;;;;;;;18.00;96.20;;;;;;5074280;28;20011;-66
2022/10/08 13:02:59;;;;;;;;;;;17.90;97.40;;;;;;5074212;28;19931;-66
2022/10/08 13:05:27;;;;;;;;;;;17.90;97.90;;;;;;5069411;28;20305;-66
2022/10/08 13:07:53;;;;;;;;;;;18.00;97.80;;;;;;5073235;28;19928;-66
2022/10/08 13:10:23;;;;;;;;;;;17.90;97.00;;;;;;5064033;28;19921;-66
2022/10/08 13:12:58;;;;;;;;;;;17.90;96.60;;;;;;5065162;28;19967;-66
2022/10/08 13:15:24;;;;;;;;;;;17.70;96.70;;;;;;5069034;28;19929;-66
2022/10/08 13:17:50;;;;;;;;;;;17.70;97.00;;;;;;5058098;28;20366;-66
2022/10/08 13:20:19;;;;;;;;;;;17.60;97.50;;;;;;5072020;28;19931;-66
2022/10/08 13:22:44;;;;;;;;;;;17.80;98.60;;;;;;5074241;28;20564;-66
2022/10/08 13:25:28;;;;;;;;;;;17.70;98.10;;;;;;5064449;28;20024;-66
2022/10/08 13:28:10;;;;;;;;;;;17.10;95.10;;;;;;5073070;28;19920;-65
2022/10/08 13:30:36;;;;;;;;;;;16.80;98.30;;;;;;5062699;28;19921;-66
2022/10/08 13:33:16;;;;;;;;;;;16.20;99.10;;;;;;5059950;28;19921;-66
2022/10/08 13:35:42;;;;;;;;;;;15.80;99.90;;;;;;5066936;28;19924;-66
2022/10/08 13:38:16;;;;;;;;;;;15.60;99.90;;;;;;5067615;28;20003;-66
2022/10/08 13:40:47;;;;;;;;;;;15.60;99.90;;;;;;5069968;28;20019;-66
2022/10/08 13:43:12;;;;;;;;;;;15.40;99.90;;;;;;5065921;28;20263;-66
2022/10/08 13:45:38;;;;;;;;;;;15.60;99.90;;;;;;5070285;28;19927;-66
2022/10/08 13:48:08;;;;;;;;;;;15.80;99.90;;;;;;5063795;28;20445;-66
2022/10/08 13:50:34;;;;;;;;;;;15.70;99.90;;;;;;5070283;28;19926;-66
2022/10/08 13:53:00;;;;;;;;;;;15.60;99.90;;;;;;5071336;28;19921;-66
2022/10/08 13:55:25;;;;;;;;;;;15.40;99.90;;;;;;5067695;28;19932;-66
2022/10/08 13:57:52;;;;;;;;;;;15.40;99.90;;;;;;5065144;28;19927;-66
2022/10/08 14:00:17;;;;;;;;;;;15.20;99.90;;;;;;5058082;28;19956;-66
2022/10/08 14:02:43;;;;;;;;;;;15.10;99.90;;;;;;5061938;28;19968;-66
2022/10/08 14:05:08;;;;;;;;;;;15.10;99.90;;;;;;5061852;28;19928;-66
2022/10/08 14:07:34;;;;;;;;;;;15.10;99.90;;;;;;5062088;28;19943;-66
2022/10/08 14:10:00;;;;;;;;;;;15.20;99.90;;;;;;5065738;28;19921;-66
2022/10/08 14:12:28;;;;;;;;;;;15.20;99.90;;;;;;5058777;28;19932;-66
2022/10/08 14:14:54;;;;;;;;;;;15.30;99.90;;;;;;5075327;28;19927;-66
2022/10/08 14:17:20;;;;;;;;;;;15.30;99.90;;;;;;5060996;28;19921;-66
2022/10/08 14:19:45;;;;;;;;;;;15.30;99.90;;;;;;5069324;28;19960;-66
2022/10/08 14:22:11;;;;;;;;;;;15.40;99.90;;;;;;5072562;28;19990;-66
2022/10/08 14:24:37;;;;;;;;;;;15.40;99.90;;;;;;5069403;28;19989;-66
2022/10/08 14:27:02;;;;;;;;;;;15.40;99.90;;;;;;5069170;28;19942;-66
2022/10/08 14:29:28;;;;;;;;;;;15.40;99.90;;;;;;5065136;28;19960;-66